Time;durP1;ratioP1;P1;durP2;ratioP2;P2;SDS_P1;SDS_P2;PMS_P1;PMS_P2;Temp;Humidity;BMP_temperature;BMP_pressure;BME280_temperature;BME280_humidity;BME280_pressure;Samples;Min_cycle;Max_cycle;Signal;HPM_P1;HPM_P2
2022/06/12 00:00:45;;;;;;;7.50;2.30;;;15.90;99.90;;;;;;5010192;28;20096;-71
2022/06/12 00:03:13;;;;;;;9.30;2.30;;;16.60;99.90;;;;;;5010413;28;20068;-72
2022/06/12 00:05:43;;;;;;;9.15;2.65;;;15.80;99.90;;;;;;5010408;28;20111;-71
2022/06/12 00:08:09;;;;;;;8.77;2.22;;;15.80;99.90;;;;;;4992126;28;20173;-71
2022/06/12 00:10:36;;;;;;;9.00;2.25;;;16.40;99.90;;;;;;4994470;28;20566;-71
2022/06/12 00:13:03;;;;;;;9.30;2.42;;;15.80;99.90;;;;;;4992821;28;20378;-71
2022/06/12 00:15:30;;;;;;;9.00;2.58;;;15.80;99.90;;;;;;4995953;28;20049;-71
2022/06/12 00:17:57;;;;;;;10.60;2.50;;;15.70;99.90;;;;;;5029951;28;20084;-71
2022/06/12 00:20:23;;;;;;;8.20;2.30;;;15.70;99.90;;;;;;5029876;28;20126;-71
2022/06/12 00:22:50;;;;;;;9.13;2.30;;;15.80;99.90;;;;;;5028842;28;20056;-71
2022/06/12 00:25:18;;;;;;;7.82;2.30;;;15.70;99.90;;;;;;5030031;28;20190;-71
2022/06/12 00:27:45;;;;;;;8.18;2.03;;;15.60;99.90;;;;;;5029797;28;20387;-71
2022/06/12 00:30:13;;;;;;;7.75;2.33;;;15.60;99.90;;;;;;5029800;28;20443;-72
2022/06/12 00:32:40;;;;;;;7.90;2.45;;;15.50;99.90;;;;;;5028961;28;20049;-72
2022/06/12 00:35:07;;;;;;;9.30;2.20;;;15.50;99.90;;;;;;5029357;28;20045;-72
2022/06/12 00:37:34;;;;;;;9.57;2.33;;;15.40;99.90;;;;;;5029158;28;20047;-72
2022/06/12 00:40:01;;;;;;;9.65;2.35;;;15.40;99.90;;;;;;5012431;28;20084;-72
2022/06/12 00:42:34;;;;;;;9.15;2.65;;;15.40;99.90;;;;;;5028989;28;20080;-72
2022/06/12 00:45:22;;;;;;;9.68;2.50;;;16.10;99.90;;;;;;5031589;28;20138;-71
2022/06/12 00:47:47;;;;;;;9.02;2.63;;;15.30;99.90;;;;;;5024533;28;20544;-72
2022/06/12 00:50:13;;;;;;;11.25;2.55;;;15.30;99.90;;;;;;5009077;28;20045;-72
2022/06/12 00:52:46;;;;;;;8.23;2.58;;;15.20;99.90;;;;;;5009787;28;20038;-72
2022/06/12 00:55:24;;;;;;;11.27;2.50;;;15.20;99.90;;;;;;5011000;28;20131;-71
2022/06/12 00:57:56;;;;;;;9.02;2.38;;;15.20;99.90;;;;;;5008590;28;20054;-72
2022/06/12 01:00:22;;;;;;;7.65;2.38;;;15.10;99.90;;;;;;4992016;28;20414;-72
2022/06/12 01:02:48;;;;;;;8.82;2.42;;;15.20;99.90;;;;;;5007447;28;20057;-71
2022/06/12 01:08:01;;;;;;;;;;;15.50;99.90;;;;;;5029109;28;20053;-71
2022/06/12 01:10:28;;;;;;;11.13;2.42;;;14.90;99.90;;;;;;5028745;28;19921;-72
2022/06/12 01:13:25;;;;;;;9.57;2.92;;;14.90;99.90;;;;;;5011608;28;20037;-72
2022/06/12 01:16:01;;;;;;;11.15;2.92;;;14.90;99.90;;;;;;5009616;28;20072;-72
2022/06/12 01:18:34;;;;;;;11.25;3.05;;;14.90;99.90;;;;;;5027851;28;20081;-72
2022/06/12 01:21:27;;;;;;;11.13;2.50;;;14.80;99.90;;;;;;5029538;28;20052;-71
2022/06/12 01:24:29;;;;;;;12.55;2.95;;;14.70;99.90;;;;;;5011111;28;20453;-71
2022/06/12 01:27:14;;;;;;;6.53;2.40;;;14.80;99.90;;;;;;5011643;28;20053;-72
2022/06/12 01:30:01;;;;;;;10.93;2.50;;;14.80;99.90;;;;;;5029381;28;20041;-72
2022/06/12 01:32:58;;;;;;;9.75;2.63;;;14.80;99.90;;;;;;5009883;28;20096;-71
2022/06/12 01:35:59;;;;;;;8.77;2.40;;;14.80;99.90;;;;;;4991511;28;20045;-72
2022/06/12 01:38:34;;;;;;;12.45;2.85;;;14.80;99.90;;;;;;4922387;28;20067;-72
2022/06/12 01:41:20;;;;;;;12.30;2.67;;;14.80;99.90;;;;;;5009280;28;20441;-72
2022/06/12 01:43:57;;;;;;;9.52;2.72;;;14.80;99.90;;;;;;5010468;28;20034;-72
2022/06/12 01:46:27;;;;;;;7.57;2.50;;;15.00;99.90;;;;;;5007380;28;20131;-72
2022/06/12 01:49:26;;;;;;;9.38;2.67;;;14.70;99.90;;;;;;4984513;28;20048;-72
2022/06/12 01:52:22;;;;;;;11.45;3.08;;;14.70;99.90;;;;;;5008156;28;20425;-72
2022/06/12 01:55:18;;;;;;;11.18;2.60;;;14.70;99.90;;;;;;4990538;28;20060;-72
2022/06/12 01:57:58;;;;;;;13.45;2.50;;;14.70;99.90;;;;;;5008191;28;20045;-71
2022/06/12 02:00:25;;;;;;;9.27;2.80;;;14.80;99.90;;;;;;5007483;28;20321;-72
2022/06/12 02:03:04;;;;;;;8.27;2.72;;;14.80;99.90;;;;;;5007991;28;20042;-72
2022/06/12 02:05:37;;;;;;;12.00;3.15;;;14.70;99.90;;;;;;5010442;28;20106;-72
2022/06/12 02:08:12;;;;;;;8.32;2.58;;;14.70;99.90;;;;;;5006923;28;20042;-72
2022/06/12 02:10:49;;;;;;;8.15;2.90;;;14.60;99.90;;;;;;5008661;28;20050;-71
2022/06/12 02:13:32;;;;;;;12.18;3.20;;;14.60;99.90;;;;;;5008495;28;20049;-71
2022/06/12 02:16:20;;;;;;;12.10;2.90;;;14.50;99.90;;;;;;5007743;28;20053;-72
2022/06/12 02:18:53;;;;;;;12.00;2.70;;;14.50;99.90;;;;;;4991116;28;20074;-71
2022/06/12 02:21:26;;;;;;;10.63;2.92;;;14.50;99.90;;;;;;5007892;28;20069;-71
2022/06/12 02:24:15;;;;;;;13.55;3.25;;;14.40;99.90;;;;;;5007838;28;20070;-71
2022/06/12 02:27:13;;;;;;;11.88;2.88;;;14.50;99.90;;;;;;4990878;28;20116;-72
2022/06/12 02:29:51;;;;;;;12.00;3.38;;;14.40;99.90;;;;;;5001356;28;20073;-71
2022/06/12 02:32:34;;;;;;;10.63;2.88;;;14.40;99.90;;;;;;5007707;28;20048;-71
2022/06/12 02:35:07;;;;;;;10.90;2.97;;;14.40;99.90;;;;;;4990993;28;20052;-71
2022/06/12 02:37:42;;;;;;;15.85;3.30;;;14.30;99.90;;;;;;5008006;28;20255;-72
2022/06/12 02:40:19;;;;;;;10.55;2.97;;;14.40;99.90;;;;;;5008629;28;20137;-72
2022/06/12 02:42:48;;;;;;;9.18;2.50;;;14.60;99.90;;;;;;5007391;28;20107;-71
2022/06/12 02:45:25;;;;;;;11.48;3.30;;;14.30;99.90;;;;;;5008474;28;20112;-72
2022/06/12 02:47:51;;;;;;;10.55;2.92;;;14.20;99.90;;;;;;5007692;28;20507;-72
2022/06/12 02:50:22;;;;;;;11.05;3.20;;;14.20;99.90;;;;;;5007850;28;20050;-70
2022/06/12 02:53:18;;;;;;;14.82;3.38;;;14.10;99.90;;;;;;5007844;28;20064;-71
2022/06/12 02:55:55;;;;;;;11.05;2.97;;;14.10;99.90;;;;;;5007734;28;20056;-72
2022/06/12 02:58:30;;;;;;;10.43;3.38;;;14.10;99.90;;;;;;4990838;28;20061;-71
2022/06/12 03:01:01;;;;;;;12.57;3.30;;;14.10;99.90;;;;;;5008875;28;20038;-70
2022/06/12 03:03:44;;;;;;;13.70;3.08;;;14.10;99.90;;;;;;5007056;28;20038;-70
2022/06/12 03:06:11;;;;;;;11.35;2.97;;;14.20;99.90;;;;;;5007588;28;20626;-70
2022/06/12 03:08:44;;;;;;;7.72;2.92;;;14.00;99.90;;;;;;5015413;28;20171;-71
2022/06/12 03:11:21;;;;;;;11.73;3.17;;;14.20;99.90;;;;;;5009250;28;20402;-71
2022/06/12 03:13:49;;;;;;;10.40;3.10;;;14.00;99.90;;;;;;5027671;28;20046;-71
2022/06/12 03:16:24;;;;;;;16.33;3.53;;;14.40;99.90;;;;;;4998150;28;20038;-71
2022/06/12 03:18:59;;;;;;;10.50;3.15;;;13.90;99.90;;;;;;4989498;28;20057;-71
2022/06/12 03:21:25;;;;;;;;;;;13.80;99.90;;;;;;5007777;28;20061;-71
2022/06/12 03:24:24;;;;;;;14.07;3.42;;;13.80;99.90;;;;;;5007978;28;19917;-71
2022/06/12 03:26:55;;;;;;;14.65;3.70;;;13.80;99.90;;;;;;4993705;28;20050;-71
2022/06/12 03:29:36;;;;;;;14.15;3.35;;;13.70;99.90;;;;;;5011560;28;20107;-71
2022/06/12 03:32:35;;;;;;;10.75;3.40;;;13.70;99.90;;;;;;5011525;28;20064;-71
2022/06/12 03:35:00;;;;;;;12.30;3.10;;;13.70;99.90;;;;;;4993774;28;20050;-71
2022/06/12 03:37:49;;;;;;;10.82;3.05;;;13.80;99.90;;;;;;5011455;28;20526;-71
2022/06/12 03:40:23;;;;;;;13.95;3.20;;;13.70;99.90;;;;;;4993749;28;20045;-71
2022/06/12 03:43:00;;;;;;;12.20;3.20;;;13.70;99.90;;;;;;5012776;28;20061;-71
2022/06/12 03:45:37;;;;;;;12.98;3.22;;;13.70;99.90;;;;;;5010328;28;20042;-70
2022/06/12 03:48:27;;;;;;;12.18;3.50;;;13.70;99.90;;;;;;5016430;28;20080;-71
2022/06/12 03:51:13;;;;;;;12.55;3.58;;;13.60;99.90;;;;;;5031364;28;20038;-71
2022/06/12 03:53:41;;;;;;;9.70;2.72;;;13.70;99.90;;;;;;5029718;28;20057;-71
2022/06/12 03:59:11;;;;;;;10.40;3.17;;;13.70;99.90;;;;;;5030995;28;20417;-71
2022/06/12 04:01:38;;;;;;;9.57;2.95;;;13.10;99.90;;;;;;5029635;28;20088;-71
2022/06/12 04:04:05;;;;;;;9.73;2.85;;;14.30;99.90;;;;;;5031109;28;20072;-71
2022/06/12 04:06:32;;;;;;;12.27;3.15;;;13.70;99.90;;;;;;5028828;28;20037;-70
2022/06/12 04:09:06;;;;;;;9.32;2.95;;;13.70;99.90;;;;;;5030321;28;20053;-70
2022/06/12 04:11:37;;;;;;;13.65;3.03;;;13.70;99.90;;;;;;5030267;28;20056;-71
2022/06/12 04:14:06;;;;;;;10.05;3.25;;;13.70;99.90;;;;;;5029765;28;20049;-71
2022/06/12 04:16:47;;;;;;;8.85;2.78;;;13.90;99.90;;;;;;5011830;28;20136;-70
2022/06/12 04:19:17;;;;;;;9.50;2.97;;;13.60;99.90;;;;;;5012543;28;20501;-70
2022/06/12 04:21:47;;;;;;;9.65;3.10;;;13.60;99.90;;;;;;5011699;28;20413;-71
2022/06/12 04:24:43;;;;;;;9.88;3.50;;;13.60;99.90;;;;;;5012943;28;20053;-73
2022/06/12 04:27:22;;;;;;;11.38;2.80;;;13.60;99.90;;;;;;5016035;28;20058;-70
2022/06/12 04:30:03;;;;;;;13.57;3.65;;;13.80;99.90;;;;;;5010220;28;20580;-71
2022/06/12 04:32:30;;;;;;;10.25;2.97;;;13.70;99.90;;;;;;4992011;28;20057;-71
2022/06/12 04:34:56;;;;;;;11.85;3.50;;;13.70;99.90;;;;;;4991788;28;20117;-71
2022/06/12 04:37:31;;;;;;;10.52;2.95;;;13.70;99.90;;;;;;5010323;28;20053;-71
2022/06/12 04:39:59;;;;;;;14.60;3.28;;;13.70;99.90;;;;;;5031262;28;20056;-71
2022/06/12 04:42:27;;;;;;;11.07;3.20;;;13.70;99.90;;;;;;5029557;28;20538;-71
2022/06/12 04:44:53;;;;;;;10.35;3.08;;;14.00;99.90;;;;;;5029737;28;20061;-71
2022/06/12 04:47:24;;;;;;;11.05;3.05;;;14.00;99.90;;;;;;4994565;28;20053;-71
2022/06/12 04:49:52;;;;;;;13.77;3.42;;;13.80;99.90;;;;;;5011387;28;20136;-71
2022/06/12 04:52:21;;;;;;;9.40;2.78;;;14.30;99.90;;;;;;5028964;28;20053;-71
2022/06/12 04:54:47;;;;;;;15.68;3.03;;;14.00;99.90;;;;;;5012013;28;20386;-71
2022/06/12 04:57:14;;;;;;;10.60;3.20;;;13.80;99.90;;;;;;5028961;28;20041;-71
2022/06/12 04:59:40;;;;;;;12.18;3.20;;;13.80;99.90;;;;;;5011155;28;20481;-71
2022/06/12 05:02:06;;;;;;;8.75;3.00;;;13.90;99.90;;;;;;5031095;28;20398;-71
2022/06/12 05:04:32;;;;;;;13.43;3.20;;;13.80;99.90;;;;;;5030256;28;20466;-71
2022/06/12 05:06:59;;;;;;;8.85;3.00;;;14.40;99.90;;;;;;5011400;28;20060;-71
2022/06/12 05:09:29;;;;;;;13.85;4.00;;;14.00;99.90;;;;;;5013494;28;20417;-71
2022/06/12 05:11:55;;;;;;;10.10;3.30;;;14.00;99.90;;;;;;5009758;28;20124;-71
2022/06/12 05:14:21;;;;;;;12.98;3.42;;;14.50;99.90;;;;;;5011515;28;20106;-71
2022/06/12 05:17:14;;;;;;;13.75;3.25;;;14.60;99.90;;;;;;5025264;28;20053;-70
2022/06/12 05:19:43;;;;;;;12.20;3.38;;;14.00;99.90;;;;;;5026228;28;20061;-72
2022/06/12 05:22:10;;;;;;;14.65;3.63;;;14.00;99.90;;;;;;5010804;28;20370;-71
2022/06/12 05:24:37;;;;;;;14.10;3.35;;;14.20;99.90;;;;;;5028097;28;20049;-71
2022/06/12 05:27:08;;;;;;;10.75;3.28;;;14.10;99.90;;;;;;5028566;28;20046;-71
2022/06/12 05:29:37;;;;;;;16.52;3.50;;;14.80;99.90;;;;;;5029809;28;20045;-71
2022/06/12 05:32:04;;;;;;;10.20;2.95;;;14.50;99.90;;;;;;5028672;28;20144;-71
2022/06/12 05:34:31;;;;;;;17.15;3.40;;;14.20;99.90;;;;;;5028868;28;20568;-71
2022/06/12 05:36:57;;;;;;;15.23;3.92;;;14.50;99.90;;;;;;5010724;28;20053;-70
2022/06/12 05:39:24;;;;;;;16.50;3.83;;;15.00;99.90;;;;;;5027837;28;20076;-70
2022/06/12 05:41:50;;;;;;;14.45;3.67;;;14.70;99.90;;;;;;5028814;28;20041;-70
2022/06/12 05:44:16;;;;;;;15.27;3.72;;;14.50;99.90;;;;;;5028295;28;20037;-70
2022/06/12 05:46:43;;;;;;;13.88;3.92;;;14.90;99.90;;;;;;5026411;28;20387;-72
2022/06/12 05:49:09;;;;;;;21.50;4.28;;;14.60;99.90;;;;;;5010785;28;20060;-71
2022/06/12 05:51:35;;;;;;;12.52;3.83;;;15.30;99.90;;;;;;5010264;28;20521;-72
2022/06/12 05:54:01;;;;;;;19.65;4.30;;;15.20;99.90;;;;;;5028555;28;20050;-71
2022/06/12 05:56:29;;;;;;;17.67;4.07;;;14.90;99.90;;;;;;5029056;28;20523;-71
2022/06/12 05:58:56;;;;;;;17.42;4.10;;;14.80;99.90;;;;;;5028435;28;20056;-71
2022/06/12 06:01:23;;;;;;;14.15;4.25;;;15.70;99.90;;;;;;5029403;28;20046;-71
2022/06/12 06:03:49;;;;;;;17.45;4.70;;;14.90;99.90;;;;;;5028378;28;20183;-71
2022/06/12 06:06:20;;;;;;;14.48;4.38;;;15.00;99.90;;;;;;5009554;28;20045;-71
2022/06/12 06:08:45;;;;;;;15.85;4.68;;;15.00;99.90;;;;;;5010307;28;20473;-71
2022/06/12 06:11:11;;;;;;;20.52;4.60;;;15.10;99.90;;;;;;5010754;28;20133;-71
2022/06/12 06:13:37;;;;;;;17.10;4.75;;;15.20;99.90;;;;;;5030113;28;20449;-71
2022/06/12 06:16:03;;;;;;;18.73;4.93;;;15.30;99.90;;;;;;5012732;28;20049;-71
2022/06/12 06:18:29;;;;;;;16.92;4.85;;;15.40;99.90;;;;;;5029096;28;20056;-71
2022/06/12 06:20:54;;;;;;;19.73;4.97;;;15.40;99.90;;;;;;5028144;28;20109;-71
2022/06/12 06:23:20;;;;;;;18.60;5.05;;;15.50;99.90;;;;;;5026879;28;20056;-71
2022/06/12 06:25:46;;;;;;;17.60;4.38;;;15.60;99.90;;;;;;5028610;28;20052;-71
2022/06/12 06:28:13;;;;;;;23.35;5.70;;;15.70;99.90;;;;;;5027413;28;20049;-71
2022/06/12 06:30:39;;;;;;;14.88;5.00;;;15.80;99.90;;;;;;5027909;28;20049;-71
2022/06/12 06:33:06;;;;;;;30.80;6.07;;;15.80;99.90;;;;;;5027966;28;20046;-71
2022/06/12 06:35:32;;;;;;;19.05;4.95;;;15.90;99.90;;;;;;5026960;28;20510;-72
2022/06/12 06:37:57;;;;;;;20.98;5.43;;;16.00;99.90;;;;;;5009850;28;20080;-72
2022/06/12 06:40:26;;;;;;;18.05;5.18;;;16.00;99.90;;;;;;5027827;28;20099;-72
2022/06/12 06:42:51;;;;;;;17.25;5.47;;;16.10;99.90;;;;;;5027390;28;20096;-72
2022/06/12 06:48:03;;;;;;;20.42;5.32;;;16.20;99.90;;;;;;5005348;28;20046;-72
2022/06/12 06:50:31;;;;;;;20.30;5.05;;;16.20;99.90;;;;;;4974584;28;20219;-72
2022/06/12 06:52:56;;;;;;;21.33;5.45;;;16.30;99.90;;;;;;5007669;28;20053;-72
2022/06/12 06:55:22;;;;;;;21.13;5.70;;;16.40;99.90;;;;;;4989984;28;20053;-73
2022/06/12 06:57:49;;;;;;;26.40;6.53;;;16.40;99.90;;;;;;4991783;28;20077;-72
2022/06/12 07:00:20;;;;;;;17.90;5.65;;;16.40;99.90;;;;;;5017714;28;20048;-72
2022/06/12 07:02:45;;;;;;;22.23;5.40;;;16.50;99.90;;;;;;5030416;28;20466;-73
2022/06/12 07:05:11;;;;;;;19.80;5.90;;;16.60;99.90;;;;;;5031467;28;20052;-72
2022/06/12 07:07:37;;;;;;;23.38;6.82;;;16.60;99.90;;;;;;4996397;28;20044;-72
2022/06/12 07:10:07;;;;;;;21.20;5.55;;;16.60;99.90;;;;;;5031398;28;20046;-72
2022/06/12 07:12:33;;;;;;;19.67;5.55;;;16.70;99.90;;;;;;5031239;28;20045;-72
2022/06/12 07:14:59;;;;;;;17.30;5.43;;;17.20;99.90;;;;;;5012191;28;20084;-72
2022/06/12 07:17:24;;;;;;;21.85;5.97;;;16.80;99.90;;;;;;5031665;28;20052;-72
2022/06/12 07:19:50;;;;;;;21.50;6.22;;;16.90;99.90;;;;;;5033606;28;20056;-70
2022/06/12 07:22:16;;;;;;;24.98;6.22;;;16.90;99.90;;;;;;5030269;28;20045;-71
2022/06/12 07:24:42;;;;;;;22.55;6.25;;;17.00;99.90;;;;;;5030848;28;20042;-71
2022/06/12 07:27:08;;;;;;;19.00;5.50;;;17.10;99.90;;;;;;5021021;28;20371;-71
2022/06/12 07:29:33;;;;;;;22.88;5.65;;;17.10;99.90;;;;;;5010586;28;20038;-71
2022/06/12 07:31:59;;;;;;;19.33;4.93;;;17.20;99.90;;;;;;5011053;28;20042;-71
2022/06/12 07:34:25;;;;;;;22.40;4.95;;;17.30;99.90;;;;;;4993559;28;20049;-71
2022/06/12 07:36:53;;;;;;;19.55;5.07;;;17.30;99.90;;;;;;4992180;28;20042;-71
2022/06/12 07:39:28;;;;;;;15.90;4.57;;;17.30;99.90;;;;;;4992932;28;20058;-71
2022/06/12 07:41:54;;;;;;;22.55;4.60;;;17.40;99.90;;;;;;5011271;28;20045;-71
2022/06/12 07:44:24;;;;;;;18.83;4.60;;;17.60;99.90;;;;;;4992820;28;20137;-71
2022/06/12 07:46:52;;;;;;;18.60;4.05;;;17.70;99.90;;;;;;5011454;28;20053;-72
2022/06/12 07:49:19;;;;;;;16.15;3.90;;;17.90;99.90;;;;;;5010910;28;20057;-72
2022/06/12 07:51:45;;;;;;;11.02;3.67;;;18.10;99.90;;;;;;4993046;28;20394;-72
2022/06/12 07:54:11;;;;;;;16.95;3.50;;;18.20;99.90;;;;;;5010789;28;20082;-72
2022/06/12 07:56:38;;;;;;;22.05;4.70;;;18.90;99.90;;;;;;5008778;28;20045;-72
2022/06/12 07:59:04;;;;;;;14.93;3.67;;;18.60;99.90;;;;;;5011193;28;20410;-72
2022/06/12 08:01:30;;;;;;;16.98;4.13;;;18.90;99.90;;;;;;5009511;28;20053;-71
2022/06/12 08:03:57;;;;;;;14.10;3.55;;;18.70;99.90;;;;;;4992624;28;20098;-71
2022/06/12 08:06:24;;;;;;;12.68;3.55;;;18.70;99.90;;;;;;5009505;28;20467;-72
2022/06/12 08:08:50;;;;;;;16.27;3.55;;;18.80;99.90;;;;;;5009748;28;20124;-72
2022/06/12 08:11:17;;;;;;;14.95;3.25;;;18.90;99.90;;;;;;4991931;28;20126;-71
2022/06/12 08:13:43;;;;;;;16.20;3.90;;;19.00;99.90;;;;;;5009948;28;20081;-71
2022/06/12 08:16:09;;;;;;;18.23;3.90;;;19.00;99.90;;;;;;5009684;28;20140;-72
2022/06/12 08:18:35;;;;;;;15.10;3.97;;;19.10;99.90;;;;;;5009299;28;20182;-72
2022/06/12 08:21:06;;;;;;;14.98;3.58;;;19.10;99.90;;;;;;5010997;28;20050;-72
2022/06/12 08:23:39;;;;;;;12.20;3.67;;;19.20;99.90;;;;;;5009439;28;20398;-72
2022/06/12 08:26:09;;;;;;;15.32;3.55;;;19.30;99.90;;;;;;5009559;28;20069;-72
2022/06/12 08:28:46;;;;;;;14.38;3.58;;;19.40;99.90;;;;;;4992372;28;20044;-72
2022/06/12 08:31:16;;;;;;;14.57;3.60;;;19.70;99.90;;;;;;5009191;28;20092;-71
2022/06/12 08:33:44;;;;;;;12.70;3.80;;;19.90;99.90;;;;;;4991944;28;20084;-72
2022/06/12 08:36:12;;;;;;;15.52;3.53;;;20.00;99.90;;;;;;5012346;28;20073;-72
2022/06/12 08:38:39;;;;;;;14.00;3.88;;;20.20;99.90;;;;;;5008826;28;20383;-72
2022/06/12 08:41:14;;;;;;;15.60;3.88;;;20.30;99.90;;;;;;4991893;28;20070;-72
2022/06/12 08:44:29;;;;;;;19.15;4.07;;;20.30;99.90;;;;;;5010048;28;20042;-72
2022/06/12 08:47:08;;;;;;;13.15;3.38;;;20.50;99.90;;;;;;4970967;28;20061;-72
2022/06/12 08:49:47;;;;;;;13.23;3.53;;;20.70;99.90;;;;;;4991986;28;20049;-71
2022/06/12 08:52:18;;;;;;;13.55;3.60;;;20.90;99.90;;;;;;5009022;28;20084;-71
2022/06/12 08:54:55;;;;;;;14.30;3.47;;;20.90;99.90;;;;;;5009085;28;20049;-71
2022/06/12 08:57:31;;;;;;;12.43;3.35;;;20.90;99.90;;;;;;5011596;28;20117;-71
2022/06/12 09:00:20;;;;;;;15.20;3.50;;;20.90;99.90;;;;;;5009402;28;20049;-72
2022/06/12 09:02:46;;;;;;;11.82;3.28;;;20.90;99.90;;;;;;4991055;28;20049;-71
2022/06/12 09:05:17;;;;;;;13.40;3.17;;;20.90;99.90;;;;;;5009255;28;20808;-72
2022/06/12 09:08:07;;;;;;;12.63;3.63;;;20.80;99.90;;;;;;5007312;28;20046;-73
2022/06/12 09:11:08;;;;;;;13.38;3.50;;;20.90;99.90;;;;;;5008895;28;20133;-72
2022/06/12 09:13:51;;;;;;;13.18;3.47;;;21.00;99.90;;;;;;5008581;28;20478;-72
2022/06/12 09:16:44;;;;;;;14.80;3.65;;;21.00;99.90;;;;;;5008019;28;20042;-72
2022/06/12 09:19:32;;;;;;;12.60;3.40;;;21.30;99.90;;;;;;5009661;28;20449;-73
2022/06/12 09:22:12;;;;;;;12.65;3.85;;;21.20;99.90;;;;;;5008525;28;20122;-73
2022/06/12 09:24:52;;;;;;;11.13;3.25;;;21.00;99.90;;;;;;5009310;28;20600;-72
2022/06/12 09:27:50;;;;;;;13.23;3.50;;;21.00;99.90;;;;;;5008895;28;20124;-72
2022/06/12 09:30:22;;;;;;;14.02;3.30;;;21.00;99.90;;;;;;5008819;28;20165;-72
2022/06/12 09:33:03;;;;;;;11.68;3.30;;;21.00;99.90;;;;;;4991373;28;20081;-72
2022/06/12 09:35:40;;;;;;;13.23;3.80;;;20.90;99.90;;;;;;5010083;28;20518;-72
2022/06/12 09:38:20;;;;;;;12.55;3.50;;;20.80;99.90;;;;;;5014508;28;20438;-72
2022/06/12 09:40:52;;;;;;;12.45;3.20;;;20.80;99.90;;;;;;5011317;28;20098;-72
2022/06/12 09:43:45;;;;;;;13.23;3.38;;;20.90;99.90;;;;;;5027202;28;20041;-72
2022/06/12 09:46:10;;;;;;;13.40;3.03;;;21.00;99.90;;;;;;5009595;28;20484;-72
2022/06/12 09:49:07;;;;;;;13.85;3.33;;;21.30;99.90;;;;;;5010295;28;20045;-72
2022/06/12 09:52:02;;;;;;;10.75;2.67;;;21.40;99.90;;;;;;5027709;28;20203;-72
2022/06/12 09:54:50;;;;;;;8.10;2.78;;;21.50;99.90;;;;;;5027402;28;20061;-71
2022/06/12 09:57:51;;;;;;;8.13;2.53;;;21.50;99.90;;;;;;5027417;28;20371;-72
2022/06/12 10:00:50;;;;;;;11.00;3.15;;;21.60;99.90;;;;;;5010096;28;20085;-72
2022/06/12 10:03:34;;;;;;;8.88;2.80;;;21.80;99.90;;;;;;5027181;28;20121;-71
2022/06/12 10:06:23;;;;;;;6.82;2.15;;;22.70;99.90;;;;;;5010823;28;20485;-71
2022/06/12 10:08:55;;;;;;;6.65;2.72;;;24.00;99.90;;;;;;5027845;28;20055;-72
2022/06/12 10:11:25;;;;;;;8.38;2.22;;;26.00;95.70;;;;;;5027659;28;20045;-72
2022/06/12 10:14:03;;;;;;;5.95;1.90;;;28.40;91.50;;;;;;5027834;28;20323;-72
2022/06/12 10:16:31;;;;;;;7.85;2.10;;;30.40;84.40;;;;;;5014112;28;20042;-72
2022/06/12 10:19:06;;;;;;;7.45;2.10;;;32.30;76.30;;;;;;5007928;28;20050;-72
2022/06/12 10:21:36;;;;;;;4.38;1.80;;;31.20;69.80;;;;;;5007657;28;20124;-72
2022/06/12 10:24:03;;;;;;;6.88;2.10;;;30.30;70.30;;;;;;5007613;28;20110;-73
2022/06/12 10:26:32;;;;;;;4.90;1.80;;;31.00;72.60;;;;;;5007585;28;20415;-73
2022/06/12 10:29:14;;;;;;;8.55;2.15;;;32.00;67.90;;;;;;5009073;28;20089;-73
2022/06/12 10:31:54;;;;;;;4.65;1.80;;;33.10;66.10;;;;;;5009440;28;20080;-73
2022/06/12 10:34:24;;;;;;;4.35;1.70;;;34.70;64.00;;;;;;4996185;28;20129;-71
2022/06/12 10:36:50;;;;;;;5.65;2.00;;;34.30;61.90;;;;;;5011876;28;20042;-71
2022/06/12 10:39:21;;;;;;;5.78;2.00;;;34.50;61.60;;;;;;5010883;28;20148;-71
2022/06/12 10:41:58;;;;;;;4.65;1.58;;;35.50;61.20;;;;;;5011684;28;20693;-72
2022/06/12 10:44:49;;;;;;;6.68;1.80;;;37.10;56.20;;;;;;4993801;28;20136;-72
2022/06/12 10:47:25;;;;;;;4.13;1.77;;;37.00;56.50;;;;;;5009551;28;20053;-72
2022/06/12 10:50:13;;;;;;;5.80;2.00;;;35.10;56.30;;;;;;5012016;28;20092;-72
2022/06/12 10:53:03;;;;;;;9.10;2.13;;;32.60;57.60;;;;;;5009565;28;21138;-72
2022/06/12 10:55:42;;;;;;;5.15;2.05;;;31.70;58.60;;;;;;4994022;28;20034;-72
2022/06/12 10:58:26;;;;;;;5.72;1.92;;;31.10;59.00;;;;;;5011460;28;20049;-72
2022/06/12 11:00:56;;;;;;;6.45;2.47;;;29.80;60.00;;;;;;4993110;28;20052;-72
2022/06/12 11:03:47;;;;;;;6.18;1.98;;;29.00;62.60;;;;;;5011169;28;20056;-72
2022/06/12 11:06:23;;;;;;;5.85;2.10;;;28.20;62.70;;;;;;4993599;28;20416;-72
2022/06/12 11:09:00;;;;;;;6.32;1.90;;;27.50;64.00;;;;;;5012520;28;20141;-72
2022/06/12 11:11:58;;;;;;;7.18;1.77;;;26.80;65.00;;;;;;5013229;28;20042;-72
2022/06/12 11:14:52;;;;;;;5.72;2.20;;;26.30;67.10;;;;;;5010584;28;20451;-72
2022/06/12 11:17:38;;;;;;;6.90;2.03;;;26.00;68.90;;;;;;5002675;28;20050;-72
2022/06/12 11:20:19;;;;;;;5.85;2.22;;;25.60;69.50;;;;;;5011418;28;20045;-72
2022/06/12 11:23:03;;;;;;;8.98;2.10;;;26.00;69.40;;;;;;5010094;28;20553;-72
2022/06/12 11:25:52;;;;;;;7.25;1.98;;;26.40;70.20;;;;;;4993013;28;20136;-72
2022/06/12 11:29:00;;;;;;;8.90;2.40;;;26.80;70.20;;;;;;5009098;28;20085;-72
2022/06/12 11:32:15;;;;;;;6.63;2.13;;;27.40;70.80;;;;;;4977331;28;20064;-72
2022/06/12 11:35:01;;;;;;;8.32;2.42;;;27.30;69.30;;;;;;4987475;28;20371;-72
2022/06/12 11:37:57;;;;;;;6.15;2.00;;;27.90;68.10;;;;;;4993908;28;20089;-73
2022/06/12 11:40:33;;;;;;;8.13;2.33;;;29.90;66.90;;;;;;5012833;28;20049;-72
2022/06/12 11:43:18;;;;;;;5.97;2.10;;;31.90;64.30;;;;;;5012446;28;20429;-71
2022/06/12 11:46:08;;;;;;;7.38;2.17;;;32.30;62.40;;;;;;5028776;28;20494;-72
2022/06/12 11:48:59;;;;;;;7.97;2.10;;;32.10;62.10;;;;;;5011746;28;20198;-71
2022/06/12 11:51:51;;;;;;;7.63;2.00;;;32.30;60.90;;;;;;5030367;28;20367;-72
2022/06/12 11:54:37;;;;;;;7.00;2.25;;;32.80;59.80;;;;;;5029728;28;20494;-73
2022/06/12 11:57:27;;;;;;;5.25;1.90;;;33.20;58.50;;;;;;5029432;28;20052;-72
2022/06/12 12:00:04;;;;;;;6.15;1.80;;;33.60;56.60;;;;;;5030950;28;20045;-72
2022/06/12 12:03:01;;;;;;;4.72;1.60;;;33.70;55.60;;;;;;5029072;28;20050;-72
2022/06/12 12:05:51;;;;;;;6.32;1.90;;;35.00;56.80;;;;;;5029997;28;20052;-72
2022/06/12 12:08:39;;;;;;;6.80;2.22;;;35.30;53.50;;;;;;5029490;28;20045;-72
2022/06/12 12:11:10;;;;;;;6.88;1.92;;;32.70;56.00;;;;;;5029610;28;20041;-72
2022/06/12 12:13:46;;;;;;;8.10;1.88;;;31.40;58.50;;;;;;5011880;28;20045;-72
2022/06/12 12:16:42;;;;;;;7.15;1.90;;;29.90;59.60;;;;;;5018926;28;20392;-72
2022/06/12 12:19:23;;;;;;;5.45;2.10;;;28.40;60.00;;;;;;5012815;28;20054;-72
2022/06/12 12:21:57;;;;;;;7.88;2.30;;;26.80;62.40;;;;;;5029400;28;20466;-72
2022/06/12 12:24:35;;;;;;;7.47;2.17;;;26.10;64.00;;;;;;5010739;28;20053;-72
2022/06/12 12:27:05;;;;;;;6.40;2.10;;;25.50;64.90;;;;;;5030084;28;20076;-72
2022/06/12 12:29:34;;;;;;;4.63;1.70;;;25.10;64.50;;;;;;5029922;28;20041;-72
2022/06/12 12:32:04;;;;;;;8.43;2.00;;;24.70;64.70;;;;;;5028483;28;20045;-72
2022/06/12 12:34:30;;;;;;;10.25;2.38;;;24.30;66.00;;;;;;5029648;28;20037;-72
2022/06/12 12:42:38;;;;;;;8.85;2.22;;;23.80;68.80;;;;;;5030043;28;20277;-72
2022/06/12 12:45:22;;;;;;;7.00;2.30;;;23.40;69.70;;;;;;5031176;28;20045;-72
2022/06/12 12:48:10;;;;;;;6.18;2.20;;;23.30;71.30;;;;;;5010030;28;20554;-72
2022/06/12 12:50:46;;;;;;;5.05;1.80;;;23.30;71.10;;;;;;5009524;28;20155;-72
2022/06/12 12:53:36;;;;;;;6.32;2.15;;;23.40;70.30;;;;;;5007492;28;20548;-72
2022/06/12 12:56:09;;;;;;;5.60;2.00;;;23.50;70.70;;;;;;4991786;28;20144;-72
2022/06/12 12:58:42;;;;;;;7.60;2.03;;;23.40;71.80;;;;;;5009349;28;20104;-71
2022/06/12 13:01:19;;;;;;;7.50;2.20;;;23.20;73.60;;;;;;5008899;28;20056;-72
2022/06/12 13:03:52;;;;;;;5.95;1.90;;;23.20;74.40;;;;;;4992190;28;20132;-72
2022/06/12 13:06:38;;;;;;;5.57;2.10;;;23.20;75.00;;;;;;5008024;28;20111;-72
2022/06/12 13:09:23;;;;;;;7.43;2.30;;;23.00;75.60;;;;;;4991047;28;20050;-72
2022/06/12 13:12:21;;;;;;;6.10;2.40;;;22.90;77.30;;;;;;5009265;28;20459;-72
2022/06/12 13:15:03;;;;;;;8.13;2.20;;;22.80;78.70;;;;;;4990577;28;20049;-72
2022/06/12 13:18:01;;;;;;;10.65;2.53;;;22.90;79.60;;;;;;5007637;28;20565;-72
2022/06/12 13:20:49;;;;;;;10.13;2.20;;;22.50;82.10;;;;;;4991491;28;20072;-72
2022/06/12 13:23:36;;;;;;;8.60;2.22;;;22.50;85.20;;;;;;5009931;28;20394;-72
2022/06/12 13:26:07;;;;;;;8.02;2.08;;;22.50;88.00;;;;;;5008875;28;20096;-72
2022/06/12 13:28:35;;;;;;;6.20;2.13;;;22.70;87.30;;;;;;5008542;28;20132;-72
2022/06/12 13:31:03;;;;;;;6.40;2.20;;;22.60;87.10;;;;;;5008745;28;20050;-72
2022/06/12 13:33:32;;;;;;;8.45;2.47;;;22.70;86.40;;;;;;5008544;28;20049;-72
2022/06/12 13:36:03;;;;;;;8.23;2.30;;;22.70;88.30;;;;;;5007868;28;20050;-72